WXM80 ListenWXM80 Stop

You find our weather info also at:

UK Metoffice

WeatherCloud

Weather Underground

Northeastern Weather Network

AWEKAS

Citizen Weather Observer Program (CWOP)

HAMweather, WeatherForYou, PWS Weather


Weather Underground History page Text

Daily Summary for November 28, 2017 Units:  English    Metric   Both
« Previous Day
Next Day »
Daily Weekly Monthly Yearly Custom
  High: Low: Average:
Temperature: 50.8 °F 33.7 °F 43.3 °F
Dew Point: 47.7 °F 25.9 °F 34.8 °F
Humidity: 91 % 52 % 72 %
Wind Speed: 6.4 mph 0.0 mph 2.2 mph
Wind Gust: 11.5 mph - -
Wind:- - SE
Pressure: 30.49 in 30.02 in -
Precipitation: 0.00 in    
Historical Graphs
 
 
Tabular Data for November 28, 2017
Time Temperature Dew Point Pressure Wind Wind Speed Wind Gust Humidity Rainfall Rate (Hourly)
00:02 38.7 °F 26.0 °F 30.33 in NNW 1.5 mph 3.5 mph 60 % 0.00 in
00:07 38.6 °F 25.9 °F 30.32 in NNE 1.6 mph 3.5 mph 60 % 0.00 in
00:09 38.6 °F 26.3 °F 30.33 in North 1.8 mph 3.5 mph 61 % 0.00 in
00:14 38.4 °F 26.1 °F 30.33 in NNE 1.0 mph 4.6 mph 61 % 0.00 in
00:19 38.3 °F 26.0 °F 30.33 in North 3.1 mph 4.0 mph 61 % 0.00 in
00:24 38.2 °F 26.7 °F 30.33 in North 2.3 mph 3.5 mph 63 % 0.00 in
00:25 38.2 °F 26.3 °F 30.33 in North 1.0 mph 3.5 mph 62 % 0.00 in
00:30 38.1 °F 26.6 °F 30.33 in North 3.2 mph 5.8 mph 63 % 0.00 in
00:35 38.0 °F 26.9 °F 30.33 in North 1.7 mph 3.5 mph 64 % 0.00 in
00:39 38.0 °F 27.3 °F 30.34 in North 3.5 mph 6.0 mph 65 % 0.00 in
00:44 37.9 °F 27.2 °F 30.33 in NNE 0.8 mph 3.5 mph 65 % 0.00 in
00:49 37.8 °F 27.1 °F 30.33 in NNE 2.3 mph 4.6 mph 65 % 0.00 in
00:54 37.8 °F 27.1 °F 30.33 in North 0.7 mph 5.0 mph 65 % 0.00 in
00:59 37.7 °F 26.6 °F 30.34 in NNE 0.9 mph 3.5 mph 64 % 0.00 in
01:04 37.7 °F 27.0 °F 30.34 in NNE 1.6 mph 3.5 mph 65 % 0.00 in
01:09 37.6 °F 26.9 °F 30.34 in NE 0.6 mph 3.5 mph 65 % 0.00 in
01:14 37.5 °F 26.8 °F 30.35 in North 1.8 mph 3.5 mph 65 % 0.00 in
01:19 37.4 °F 27.1 °F 30.35 in NNE 2.1 mph 3.5 mph 66 % 0.00 in
01:24 37.3 °F 26.6 °F 30.35 in NNE 4.0 mph 5.0 mph 65 % 0.00 in
01:29 37.3 °F 26.6 °F 30.36 in NNE 0.7 mph 3.5 mph 65 % 0.00 in
01:34 37.2 °F 26.9 °F 30.36 in NNE 1.3 mph 3.5 mph 66 % 0.00 in
01:39 37.2 °F 26.9 °F 30.36 in NNE 5.9 mph 8.1 mph 66 % 0.00 in
01:44 37.2 °F 26.9 °F 30.36 in NNE 4.9 mph 6.9 mph 66 % 0.00 in
01:49 37.2 °F 26.9 °F 30.36 in ENE 1.4 mph 4.6 mph 66 % 0.00 in
01:54 37.2 °F 26.9 °F 30.36 in NNE 3.3 mph 4.0 mph 66 % 0.00 in
01:59 37.2 °F 26.9 °F 30.35 in NNE 2.5 mph 4.6 mph 66 % 0.00 in
02:04 37.3 °F 27.0 °F 30.35 in NNE 1.2 mph 3.5 mph 66 % 0.00 in
02:09 37.3 °F 27.0 °F 30.35 in North 2.2 mph 3.5 mph 66 % 0.00 in
02:15 37.2 °F 26.9 °F 30.36 in ENE 2.0 mph 3.5 mph 66 % 0.00 in
02:20 37.2 °F 26.9 °F 30.36 in NE 0.2 mph 3.5 mph 66 % 0.00 in
02:25 37.1 °F 26.4 °F 30.36 in NE 1.5 mph 4.6 mph 65 % 0.00 in
02:30 37.1 °F 26.8 °F 30.36 in NNE 3.8 mph 5.8 mph 66 % 0.00 in
02:35 37.1 °F 26.8 °F 30.36 in ENE 1.2 mph 4.6 mph 66 % 0.00 in
02:40 37.0 °F 27.1 °F 30.37 in NNE 1.6 mph 5.8 mph 67 % 0.00 in
02:45 37.0 °F 27.1 °F 30.37 in NNE 0.4 mph 3.5 mph 67 % 0.00 in
02:50 37.0 °F 27.4 °F 30.37 in NE 2.2 mph 3.5 mph 68 % 0.00 in
02:55 36.9 °F 27.3 °F 30.37 in NNE 2.8 mph 4.6 mph 68 % 0.00 in
03:00 36.9 °F 27.0 °F 30.38 in North 1.0 mph 3.5 mph 67 % 0.00 in
03:05 36.8 °F 27.2 °F 30.38 in NE 2.2 mph 3.5 mph 68 % 0.00 in
03:10 36.8 °F 27.9 °F 30.37 in NNE 1.6 mph 3.5 mph 70 % 0.00 in
03:15 36.8 °F 27.6 °F 30.37 in NNE 1.9 mph 3.5 mph 69 % 0.00 in
03:20 36.7 °F 27.8 °F 30.38 in East 2.4 mph 6.9 mph 70 % 0.00 in
03:25 36.7 °F 28.2 °F 30.38 in ENE 2.1 mph 6.9 mph 71 % 0.00 in
03:30 36.7 °F 28.5 °F 30.39 in NE 2.3 mph 9.2 mph 72 % 0.00 in
03:35 36.8 °F 28.6 °F 30.38 in NNE 2.8 mph 4.6 mph 72 % 0.00 in
03:40 36.8 °F 28.6 °F 30.39 in NE 0.9 mph 4.6 mph 72 % 0.00 in
03:45 36.7 °F 28.2 °F 30.39 in ENE 2.1 mph 4.6 mph 71 % 0.00 in
03:50 36.7 °F 28.5 °F 30.39 in NNE 1.7 mph 3.5 mph 72 % 0.00 in
03:55 36.6 °F 28.4 °F 30.39 in ENE 1.4 mph 8.1 mph 72 % 0.00 in
04:00 36.6 °F 28.4 °F 30.38 in NE 3.3 mph 5.8 mph 72 % 0.00 in
04:05 36.5 °F 28.3 °F 30.39 in NNE 1.6 mph 3.5 mph 72 % 0.00 in
04:06 36.6 °F 28.4 °F 30.38 in NE 1.7 mph 3.5 mph 72 % 0.00 in
04:11 36.4 °F 28.2 °F 30.39 in NNE 2.3 mph 5.8 mph 72 % 0.00 in
04:16 36.4 °F 27.9 °F 30.39 in ENE 1.8 mph 3.5 mph 71 % 0.00 in
04:21 36.4 °F 27.9 °F 30.39 in ENE 2.5 mph 5.8 mph 71 % 0.00 in
04:26 36.3 °F 27.8 °F 30.39 in NNE 0.9 mph 3.0 mph 71 % 0.00 in
04:31 36.2 °F 27.7 °F 30.40 in ENE 2.1 mph 3.5 mph 71 % 0.00 in
04:36 36.2 °F 27.7 °F 30.40 in ENE 2.6 mph 3.5 mph 71 % 0.00 in
04:41 36.2 °F 28.0 °F 30.40 in ENE 2.3 mph 3.5 mph 72 % 0.00 in
04:46 36.2 °F 28.4 °F 30.41 in ENE 4.6 mph 8.1 mph 73 % 0.00 in
04:51 36.3 °F 28.1 °F 30.40 in ENE 2.7 mph 5.8 mph 72 % 0.00 in
04:56 36.3 °F 28.1 °F 30.40 in ENE 2.8 mph 4.6 mph 72 % 0.00 in
05:01 36.4 °F 28.6 °F 30.41 in ENE 3.3 mph 6.9 mph 73 % 0.00 in
05:06 36.4 °F 28.6 °F 30.40 in ENE 4.2 mph 8.1 mph 73 % 0.00 in
05:11 36.4 °F 28.6 °F 30.41 in ENE 2.7 mph 8.1 mph 73 % 0.00 in
05:16 36.3 °F 27.4 °F 30.41 in ENE 4.3 mph 9.2 mph 70 % 0.00 in
05:21 36.4 °F 27.9 °F 30.41 in NE 5.0 mph 8.1 mph 71 % 0.00 in
05:22 36.4 °F 27.9 °F 30.41 in NE 5.0 mph 8.1 mph 71 % 0.00 in
05:27 36.3 °F 27.4 °F 30.41 in ENE 3.3 mph 9.2 mph 70 % 0.00 in
05:32 36.3 °F 27.4 °F 30.41 in ENE 3.7 mph 6.9 mph 70 % 0.00 in
05:37 36.3 °F 27.4 °F 30.41 in ENE 3.6 mph 4.6 mph 70 % 0.00 in
05:42 36.3 °F 27.4 °F 30.41 in ENE 4.2 mph 8.1 mph 70 % 0.00 in
05:47 36.2 °F 27.7 °F 30.42 in ENE 5.0 mph 9.2 mph 71 % 0.00 in
05:48 36.2 °F 27.7 °F 30.42 in ENE 3.7 mph 8.1 mph 71 % 0.00 in
05:53 36.2 °F 28.0 °F 30.42 in ENE 3.8 mph 8.1 mph 72 % 0.00 in
05:58 36.3 °F 28.5 °F 30.42 in ENE 4.9 mph 8.1 mph 73 % 0.00 in
06:03 36.3 °F 28.8 °F 30.42 in ENE 3.0 mph 4.6 mph 74 % 0.00 in
06:08 36.3 °F 28.5 °F 30.42 in ENE 2.4 mph 3.5 mph 73 % 0.00 in
06:13 36.3 °F 28.8 °F 30.42 in East 3.4 mph 5.0 mph 74 % 0.00 in
06:18 36.2 °F 28.7 °F 30.42 in East 2.2 mph 3.5 mph 74 % 0.00 in
06:23 36.2 °F 28.7 °F 30.43 in East 2.0 mph 3.5 mph 74 % 0.00 in
06:28 36.1 °F 28.6 °F 30.43 in East 2.1 mph 3.5 mph 74 % 0.00 in
06:33 36.1 °F 28.6 °F 30.44 in East 0.7 mph 2.3 mph 74 % 0.00 in
06:38 36.1 °F 28.3 °F 30.45 in East 0.6 mph 1.2 mph 73 % 0.00 in
06:43 36.0 °F 28.2 °F 30.45 in Calm   1.2 mph 73 % 0.00 in
06:48 35.9 °F 28.1 °F 30.45 in East 0.9 mph 2.3 mph 73 % 0.00 in
07:13 34.6 °F 27.5 °F 30.45 in SSE 1.4 mph 2.3 mph 75 % 0.00 in
07:18 34.4 °F 27.6 °F 30.46 in SSE 0.1 mph 1.0 mph 76 % 0.00 in
07:23 34.2 °F 27.4 °F 30.45 in SSE 0.5 mph 1.2 mph 76 % 0.00 in
07:28 34.1 °F 27.3 °F 30.46 in Calm     76 % 0.00 in
07:33 33.9 °F 27.1 °F 30.46 in ENE 1.1 mph 1.2 mph 76 % 0.00 in
07:49 33.7 °F 27.3 °F 30.47 in ENE 0.3 mph 2.0 mph 77 % 0.00 in
07:54 33.7 °F 27.3 °F 30.47 in SE 0.6 mph 2.3 mph 77 % 0.00 in
08:04 34.0 °F 27.2 °F 30.47 in SE 1.3 mph 3.5 mph 76 % 0.00 in
08:09 34.2 °F 27.1 °F 30.47 in SE 0.7 mph 2.3 mph 75 % 0.00 in
08:14 34.5 °F 27.1 °F 30.47 in Calm   1.0 mph 74 % 0.00 in
08:19 34.9 °F 27.1 °F 30.48 in SE 1.1 mph 3.5 mph 73 % 0.00 in
08:24 35.2 °F 27.1 °F 30.47 in ESE 0.8 mph 3.5 mph 72 % 0.00 in
08:29 35.6 °F 27.1 °F 30.47 in East 0.2 mph 1.2 mph 71 % 0.00 in
08:39 36.4 °F 27.2 °F 30.47 in East 1.3 mph 3.5 mph 69 % 0.00 in
08:44 36.7 °F 27.1 °F 30.47 in East 1.4 mph 2.3 mph 68 % 0.00 in
08:49 37.0 °F 27.1 °F 30.47 in SSE 2.2 mph 7.0 mph 67 % 0.00 in
08:54 37.5 °F 27.5 °F 30.47 in East 1.5 mph 5.8 mph 67 % 0.00 in
09:04 38.8 °F 28.4 °F 30.48 in ESE 1.0 mph 1.2 mph 66 % 0.00 in
09:06 38.8 °F 28.1 °F 30.48 in East 1.0 mph 6.0 mph 65 % 0.00 in
09:11 39.4 °F 28.6 °F 30.48 in ESE 1.0 mph 4.0 mph 65 % 0.00 in
09:16 40.0 °F 28.4 °F 30.48 in ESE 2.0 mph 5.0 mph 63 % 0.00 in
09:26 40.7 °F 28.7 °F 30.48 in East 2.5 mph 3.5 mph 62 % 0.00 in
09:31 41.1 °F 29.0 °F 30.48 in East 3.0 mph 7.0 mph 62 % 0.00 in
09:36 41.3 °F 28.9 °F 30.48 in East 2.0 mph 6.0 mph 61 % 0.00 in
09:41 41.6 °F 29.6 °F 30.48 in East 3.0 mph 6.0 mph 62 % 0.00 in
09:46 42.0 °F 29.5 °F 30.49 in East 2.0 mph 6.0 mph 61 % 0.00 in
09:51 42.3 °F 29.0 °F 30.48 in East 2.0 mph 6.0 mph 59 % 0.00 in
09:56 42.9 °F 29.5 °F 30.49 in East 1.7 mph 3.5 mph 59 % 0.00 in
10:01 43.4 °F 29.6 °F 30.49 in ENE 0.9 mph 3.5 mph 58 % 0.00 in
10:06 43.9 °F 28.8 °F 30.49 in East 1.5 mph 2.3 mph 55 % 0.00 in
10:11 44.2 °F 28.1 °F 30.48 in SE 1.0 mph 4.6 mph 53 % 0.00 in
10:16 44.6 °F 28.5 °F 30.49 in SE 0.3 mph 1.2 mph 53 % 0.00 in
10:27 44.7 °F 28.6 °F 30.49 in ENE 2.2 mph 3.5 mph 53 % 0.00 in
10:37 44.3 °F 28.2 °F 30.48 in ENE 0.5 mph 2.3 mph 53 % 0.00 in
10:42 44.4 °F 28.3 °F 30.48 in Calm   2.3 mph 53 % 0.00 in
10:47 44.6 °F 28.5 °F 30.48 in ENE 2.1 mph 3.5 mph 53 % 0.00 in
10:57 44.5 °F 28.0 °F 30.48 in ENE 1.8 mph 5.0 mph 52 % 0.00 in
11:07 43.9 °F 27.4 °F 30.47 in ENE 3.0 mph 4.0 mph 52 % 0.00 in
11:12 43.8 °F 28.2 °F 30.47 in ENE 1.6 mph 3.5 mph 54 % 0.00 in
11:17 43.8 °F 28.7 °F 30.46 in NE 1.2 mph 3.5 mph 55 % 0.00 in
11:27 44.1 °F 30.3 °F 30.46 in SSE 3.3 mph 5.8 mph 58 % 0.00 in
11:32 44.5 °F 30.2 °F 30.46 in SSE 3.9 mph 4.6 mph 57 % 0.00 in
11:42 44.9 °F 31.0 °F 30.45 in SSE 3.7 mph 5.8 mph 58 % 0.00 in
11:47 45.2 °F 31.7 °F 30.45 in SSE 2.3 mph 3.5 mph 59 % 0.00 in
11:52 45.4 °F 31.9 °F 30.45 in SSE 5.6 mph 8.0 mph 59 % 0.00 in
11:57 45.7 °F 32.6 °F 30.44 in South 1.2 mph 3.5 mph 60 % 0.00 in
12:02 46.1 °F 32.1 °F 30.44 in SSE 6.2 mph 9.2 mph 58 % 0.00 in
12:07 46.3 °F 32.3 °F 30.44 in SSE 4.8 mph 8.1 mph 58 % 0.00 in
12:12 46.5 °F 32.9 °F 30.43 in SSE 5.5 mph 6.9 mph 59 % 0.00 in
12:18 46.8 °F 33.2 °F 30.43 in SE 3.4 mph 9.2 mph 59 % 0.00 in
12:23 47.1 °F 33.5 °F 30.43 in SSE 2.0 mph 9.2 mph 59 % 0.00 in
12:28 47.4 °F 33.4 °F 30.42 in SE 1.6 mph 5.8 mph 58 % 0.00 in
12:33 47.7 °F 34.1 °F 30.42 in SSE 5.8 mph 11.5 mph 59 % 0.00 in
12:38 47.9 °F 33.8 °F 30.42 in SSW 5.2 mph 9.2 mph 58 % 0.00 in
12:43 48.1 °F 34.0 °F 30.42 in SSE 3.0 mph 4.0 mph 58 % 0.00 in
12:48 48.3 °F 34.2 °F 30.42 in SSE 2.0 mph 4.6 mph 58 % 0.00 in
12:53 48.3 °F 34.6 °F 30.41 in SE 0.7 mph 4.6 mph 59 % 0.00 in
13:03 48.5 °F 34.8 °F 30.41 in ESE 1.2 mph 6.9 mph 59 % 0.00 in
13:08 48.6 °F 34.5 °F 30.41 in South 3.7 mph 7.0 mph 58 % 0.00 in
13:18 48.8 °F 34.7 °F 30.41 in SSE 2.6 mph 4.6 mph 58 % 0.00 in
13:23 48.8 °F 35.1 °F 30.41 in SSE 5.4 mph 6.9 mph 59 % 0.00 in
13:28 48.8 °F 35.1 °F 30.40 in SW 4.4 mph 6.9 mph 59 % 0.00 in
13:33 48.9 °F 35.2 °F 30.40 in SSW 4.7 mph 10.4 mph 59 % 0.00 in
13:48 49.3 °F 36.0 °F 30.40 in South 1.6 mph 5.8 mph 60 % 0.00 in
13:53 49.5 °F 36.2 °F 30.40 in South 6.4 mph 9.2 mph 60 % 0.00 in
13:58 49.5 °F 36.2 °F 30.40 in SSE 3.2 mph 9.2 mph 60 % 0.00 in
14:03 49.4 °F 36.1 °F 30.40 in South 3.8 mph 10.4 mph 60 % 0.00 in
14:13 49.5 °F 37.0 °F 30.40 in SW 2.5 mph 3.5 mph 62 % 0.00 in
14:18 49.5 °F 36.6 °F 30.40 in SSE 2.4 mph 6.9 mph 61 % 0.00 in
14:23 49.5 °F 37.0 °F 30.40 in South 2.0 mph 3.5 mph 62 % 0.00 in
14:28 49.4 °F 37.3 °F 30.39 in South 3.4 mph 5.8 mph 63 % 0.00 in
14:33 49.4 °F 36.9 °F 30.40 in SSE 2.5 mph 6.9 mph 62 % 0.00 in
14:58 49.1 °F 37.8 °F 30.38 in SSW 5.8 mph 11.5 mph 65 % 0.00 in
15:03 49.1 °F 38.2 °F 30.38 in SSE 3.2 mph 4.6 mph 66 % 0.00 in
15:09 49.1 °F 38.6 °F 30.38 in South 2.4 mph 3.5 mph 67 % 0.00 in
15:13 49.1 °F 38.6 °F 30.38 in SSE 0.7 mph 3.5 mph 67 % 0.00 in
15:18 49.0 °F 38.5 °F 30.38 in SSW 2.5 mph 9.2 mph 67 % 0.00 in
15:24 49.0 °F 38.9 °F 30.38 in South 4.4 mph 6.9 mph 68 % 0.00 in
15:34 49.0 °F 39.3 °F 30.37 in Calm   1.2 mph 69 % 0.00 in
15:39 49.0 °F 39.3 °F 30.37 in SE 0.3 mph 3.5 mph 69 % 0.00 in
15:49 49.0 °F 39.6 °F 30.37 in South 1.6 mph 3.5 mph 70 % 0.00 in
15:54 49.0 °F 39.6 °F 30.37 in Calm     70 % 0.00 in
15:59 49.0 °F 40.0 °F 30.37 in South 1.3 mph 3.0 mph 71 % 0.00 in
16:04 49.0 °F 40.0 °F 30.37 in Calm   2.3 mph 71 % 0.00 in
16:09 49.0 °F 40.4 °F 30.37 in South 0.5 mph 3.0 mph 72 % 0.00 in
16:19 49.1 °F 40.8 °F 30.36 in SE 2.7 mph 5.8 mph 73 % 0.00 in
16:24 49.1 °F 40.8 °F 30.36 in SE 0.1 mph 3.5 mph 73 % 0.00 in
16:29 49.1 °F 40.8 °F 30.35 in SE 0.8 mph 3.5 mph 73 % 0.00 in
16:34 49.2 °F 41.3 °F 30.35 in SE 0.2 mph 3.5 mph 74 % 0.00 in
16:39 49.2 °F 40.9 °F 30.35 in Calm     73 % 0.00 in
16:55 49.1 °F 40.8 °F 30.35 in Calm     73 % 0.00 in
17:00 49.0 °F 41.1 °F 30.35 in Calm     74 % 0.00 in
17:10 49.0 °F 41.4 °F 30.35 in SE 0.1 mph 1.2 mph 75 % 0.00 in
17:15 48.9 °F 41.3 °F 30.34 in Calm   1.2 mph 75 % 0.00 in
17:20 48.8 °F 41.2 °F 30.34 in SE 0.4 mph 2.3 mph 75 % 0.00 in
17:25 48.8 °F 41.6 °F 30.34 in Calm   1.2 mph 76 % 0.00 in
17:35 48.6 °F 42.0 °F 30.34 in SE 0.1 mph 2.3 mph 78 % 0.00 in
17:45 48.4 °F 42.2 °F 30.34 in SE 1.0 mph 3.0 mph 79 % 0.00 in
17:52 48.4 °F 42.5 °F 30.33 in SE 1.3 mph 3.0 mph 80 % 0.00 in
17:57 48.3 °F 42.7 °F 30.33 in SE 0.5 mph 2.0 mph 81 % 0.00 in
18:02 48.3 °F 43.1 °F 30.34 in SE 0.4 mph 1.2 mph 82 % 0.00 in
18:12 48.2 °F 43.0 °F 30.33 in SE 0.2 mph 1.2 mph 82 % 0.00 in
18:23 48.1 °F 43.5 °F 30.32 in SE 0.3 mph   84 % 0.00 in
18:28 48.2 °F 43.9 °F 30.32 in SE 0.2 mph 2.3 mph 85 % 0.00 in
18:33 48.1 °F 44.1 °F 30.32 in South 2.4 mph 3.5 mph 86 % 0.00 in
18:43 48.4 °F 45.0 °F 30.32 in SSW 1.7 mph 3.5 mph 88 % 0.00 in
18:48 48.5 °F 45.1 °F 30.32 in SSW 0.4 mph 2.0 mph 88 % 0.00 in
18:53 48.5 °F 45.1 °F 30.31 in SSW 1.4 mph 3.5 mph 88 % 0.00 in
18:58 48.7 °F 45.6 °F 30.31 in SSW 1.0 mph 3.5 mph 89 % 0.00 in
19:03 48.7 °F 45.6 °F 30.31 in SSW 2.9 mph 3.5 mph 89 % 0.00 in
19:08 48.8 °F 45.7 °F 30.31 in SSW 1.9 mph 3.5 mph 89 % 0.00 in
19:13 48.9 °F 45.8 °F 30.31 in SSW 3.1 mph 6.9 mph 89 % 0.00 in
19:18 49.1 °F 46.0 °F 30.31 in South 1.0 mph 2.3 mph 89 % 0.00 in
19:23 49.1 °F 46.0 °F 30.30 in SSW 2.2 mph 5.8 mph 89 % 0.00 in
19:28 49.2 °F 46.1 °F 30.30 in SSW 1.6 mph 3.5 mph 89 % 0.00 in
19:33 49.3 °F 46.2 °F 30.31 in SSW 2.2 mph 7.0 mph 89 % 0.00 in
19:38 49.4 °F 46.3 °F 30.31 in SSW 0.1 mph 3.5 mph 89 % 0.00 in
19:48 49.7 °F 46.3 °F 30.30 in SSW 2.0 mph 3.5 mph 88 % 0.00 in
19:53 49.8 °F 46.7 °F 30.30 in SSW 4.0 mph 5.8 mph 89 % 0.00 in
19:58 49.9 °F 46.5 °F 30.29 in South 4.0 mph 6.0 mph 88 % 0.00 in
20:03 50.1 °F 46.7 °F 30.29 in SW 3.0 mph 6.0 mph 88 % 0.00 in
20:08 50.1 °F 46.7 °F 30.29 in SSW 2.6 mph 3.5 mph 88 % 0.00 in
20:13 50.2 °F 46.8 °F 30.29 in SW 3.4 mph 6.9 mph 88 % 0.00 in
20:18 50.3 °F 46.9 °F 30.29 in SSW 3.6 mph 5.0 mph 88 % 0.00 in
20:28 50.4 °F 46.7 °F 30.29 in South 2.1 mph 5.8 mph 87 % 0.00 in
20:33 50.5 °F 47.1 °F 30.28 in SSW 1.3 mph 3.5 mph 88 % 0.00 in
20:48 50.6 °F 47.2 °F 30.28 in South 3.5 mph 5.8 mph 88 % 0.00 in
20:53 50.7 °F 47.3 °F 30.28 in SSW 2.5 mph 8.1 mph 88 % 0.00 in
20:58 50.8 °F 47.4 °F 30.28 in SSW 3.0 mph 8.1 mph 88 % 0.00 in
21:03 50.8 °F 47.4 °F 30.28 in SSW 1.5 mph 3.5 mph 88 % 0.00 in
21:08 50.8 °F 47.4 °F 30.28 in SSW 2.1 mph 4.6 mph 88 % 0.00 in
21:18 50.8 °F 47.4 °F 30.28 in SSW 3.6 mph 4.0 mph 88 % 0.00 in
21:24 50.7 °F 47.3 °F 30.27 in SSW 1.4 mph 3.5 mph 88 % 0.00 in
21:29 50.7 °F 47.3 °F 30.28 in SSW 2.9 mph 5.8 mph 88 % 0.00 in
21:34 50.6 °F 47.5 °F 30.27 in South 2.1 mph 5.0 mph 89 % 0.00 in
21:39 50.6 °F 47.5 °F 30.27 in South 3.1 mph 4.6 mph 89 % 0.00 in
21:49 50.5 °F 47.4 °F 30.27 in SSW 0.4 mph 3.5 mph 89 % 0.00 in
21:54 50.5 °F 47.4 °F 30.26 in SSW 2.7 mph 4.6 mph 89 % 0.00 in
21:59 50.5 °F 47.4 °F 30.26 in South 1.3 mph 3.5 mph 89 % 0.00 in
22:04 50.5 °F 47.4 °F 30.25 in SSW 4.5 mph 6.0 mph 89 % 0.00 in
22:14 50.5 °F 47.4 °F 30.25 in SSE 3.2 mph 5.8 mph 89 % 0.00 in
22:20 50.5 °F 47.4 °F 30.25 in SSW 4.9 mph 8.1 mph 89 % 0.00 in
22:21 50.5 °F 47.4 °F 30.25 in SSW 3.2 mph 5.0 mph 89 % 0.00 in
22:23 50.5 °F 47.4 °F 30.03 in SSW 2.5 mph 3.5 mph 89 % 0.00 in
22:26 50.5 °F 47.4 °F 30.25 in SW 2.6 mph 6.9 mph 89 % 0.00 in
22:28 50.5 °F 47.4 °F 30.02 in SSW 3.1 mph 5.8 mph 89 % 0.00 in
22:29 50.5 °F 47.4 °F 30.24 in South 2.4 mph 4.6 mph 89 % 0.00 in
22:32 50.5 °F 47.4 °F 30.24 in SSW 3.0 mph 6.0 mph 89 % 0.00 in
22:37 50.5 °F 47.4 °F 30.24 in SSW 4.4 mph 6.9 mph 89 % 0.00 in
22:42 50.5 °F 47.4 °F 30.24 in SW 2.4 mph 4.6 mph 89 % 0.00 in
22:47 50.4 °F 47.3 °F 30.24 in South 4.9 mph 8.1 mph 89 % 0.00 in
22:52 50.4 °F 47.3 °F 30.24 in WSW 3.3 mph 5.8 mph 89 % 0.00 in
22:57 50.4 °F 47.6 °F 30.23 in SSW 4.2 mph 6.9 mph 90 % 0.00 in
23:07 50.3 °F 47.5 °F 30.23 in SSW 4.1 mph 9.2 mph 90 % 0.00 in
23:12 50.3 °F 47.5 °F 30.23 in SSW 3.2 mph 5.8 mph 90 % 0.00 in
23:17 50.2 °F 47.4 °F 30.22 in SSW 3.8 mph 6.9 mph 90 % 0.00 in
23:18 50.2 °F 47.4 °F 30.22 in SSW 3.1 mph 3.5 mph 90 % 0.00 in
23:23 50.2 °F 47.4 °F 30.22 in SW 2.8 mph 6.9 mph 90 % 0.00 in
23:33 50.1 °F 47.3 °F 30.21 in SSW 3.4 mph 5.8 mph 90 % 0.00 in
23:38 50.1 °F 47.6 °F 30.21 in SSW 4.2 mph 5.8 mph 91 % 0.00 in
23:43 50.2 °F 47.7 °F 30.20 in South 4.8 mph 10.4 mph 91 % 0.00 in
23:54 50.2 °F 47.7 °F 30.19 in South 3.9 mph 6.9 mph 91 % 0.00 in
23:59 50.2 °F 47.7 °F 30.19 in SSW 3.7 mph 9.2 mph 91 % 0.00 in
Crab Meadow Weather
Compliments of Weather Underground - 2.75 mb

Script developed by  Jim McMurry - jmcmurry@mwt.net Adapted for the template by  Wim van der Kuil - Leuven-Template.eu

Weather Terms: High Wind Warning - Sustained winds of 40 mph or greater for a duration of one hour or longer or gusts to 58 mph or greater.